createdAt,value
2023-05-24T00:00:37.667Z,21.10
2023-05-24T00:01:42.095Z,23.20
2023-05-24T00:02:47.361Z,22.90
2023-05-24T00:03:52.606Z,24.20
2023-05-24T00:04:57.316Z,25.30
2023-05-24T00:06:04.352Z,22.20
2023-05-24T00:07:09.552Z,23.50
2023-05-24T00:08:14.656Z,24.30
2023-05-24T00:09:19.854Z,23.60
2023-05-24T00:10:24.945Z,23.80
2023-05-24T00:11:29.467Z,24.20
2023-05-24T00:12:35.135Z,23.80
2023-05-24T00:13:39.958Z,25.80
2023-05-24T00:14:45.802Z,25.40
2023-05-24T00:15:50.591Z,23.30
2023-05-24T00:16:55.214Z,20.60
2023-05-24T00:17:59.862Z,20.40
2023-05-24T00:19:04.439Z,20.50
2023-05-24T00:20:10.331Z,21.30
2023-05-24T00:21:17.763Z,26.30
2023-05-24T00:22:22.467Z,22.30
2023-05-24T00:23:28.062Z,20.50
2023-05-24T00:24:32.728Z,22.50
2023-05-24T00:25:37.354Z,18.00
2023-05-24T00:26:42.109Z,24.00
2023-05-24T00:27:46.629Z,25.20
2023-05-24T00:28:51.145Z,20.80
2023-05-24T00:29:55.775Z,24.10
2023-05-24T00:31:00.960Z,22.40
2023-05-24T00:32:06.920Z,22.30
2023-05-24T00:33:11.261Z,21.90
2023-05-24T00:34:15.964Z,19.00
2023-05-24T00:35:22.788Z,25.00
2023-05-24T00:36:27.975Z,25.10
2023-05-24T00:37:32.555Z,24.10
2023-05-24T00:38:37.772Z,26.40
2023-05-24T00:39:42.399Z,23.40
2023-05-24T00:40:48.405Z,23.20
2023-05-24T00:41:52.964Z,24.40
2023-05-24T00:42:58.152Z,23.80
2023-05-24T00:44:03.209Z,24.00
2023-05-24T00:45:09.929Z,24.00
2023-05-24T00:46:20.683Z,24.40
2023-05-24T00:47:25.870Z,22.80
2023-05-24T00:48:30.409Z,22.60
2023-05-24T00:49:35.450Z,18.30
2023-05-24T00:50:40.828Z,22.10
2023-05-24T00:51:45.258Z,24.00
2023-05-24T00:52:50.538Z,21.50
2023-05-24T00:53:55.669Z,24.90
2023-05-24T00:55:00.693Z,17.40
2023-05-24T00:56:06.357Z,22.80
2023-05-24T00:57:10.830Z,18.90
2023-05-24T00:58:16.046Z,24.90
2023-05-24T00:59:20.779Z,23.40
2023-05-24T01:00:26.513Z,22.40
2023-05-24T01:01:31.497Z,23.30
2023-05-24T01:02:36.373Z,22.90
2023-05-24T01:03:41.709Z,23.40
2023-05-24T01:04:46.514Z,23.30
2023-05-24T01:05:51.217Z,23.30
2023-05-24T01:07:27.020Z,26.60
2023-05-24T01:09:00.366Z,21.80
2023-05-24T01:14:37.895Z,21.00
2023-05-24T01:17:21.831Z,25.20
2023-05-24T01:18:29.078Z,26.40
2023-05-24T01:19:57.262Z,22.40
2023-05-24T01:21:34.320Z,20.40
2023-05-24T01:22:58.585Z,21.60
2023-05-24T01:24:11.262Z,23.00
2023-05-24T01:25:29.298Z,20.10
2023-05-24T01:27:52.152Z,28.00
2023-05-24T01:28:56.739Z,21.90
2023-05-24T01:30:02.043Z,20.40
2023-05-24T01:31:07.160Z,22.80
2023-05-24T01:32:11.823Z,26.20
2023-05-24T01:33:16.852Z,22.10
2023-05-24T01:34:19.867Z,23.70
2023-05-24T01:35:26.573Z,22.40
2023-05-24T01:36:31.020Z,21.50
2023-05-24T01:37:36.017Z,24.30
2023-05-24T01:38:41.002Z,22.30
2023-05-24T01:39:47.175Z,20.60
2023-05-24T01:40:52.291Z,22.10
2023-05-24T01:42:26.646Z,24.20
2023-05-24T01:46:20.723Z,26.60
2023-05-24T01:47:31.683Z,25.50
2023-05-24T01:48:49.128Z,22.10
2023-05-24T01:50:06.445Z,24.50
2023-05-24T01:51:11.130Z,21.90
2023-05-24T01:52:18.426Z,24.40
2023-05-24T01:53:23.158Z,20.60
2023-05-24T01:54:28.269Z,19.80
2023-05-24T01:55:32.928Z,22.00
2023-05-24T01:56:38.038Z,22.90
2023-05-24T01:57:42.601Z,18.10
2023-05-24T01:58:49.375Z,21.40
2023-05-24T01:59:54.472Z,21.90
2023-05-24T02:00:59.170Z,23.50
2023-05-24T02:02:04.463Z,22.60
2023-05-24T02:03:10.001Z,25.00
2023-05-24T02:04:15.311Z,22.20
2023-05-24T02:05:19.875Z,26.00
2023-05-24T02:06:24.755Z,22.30
2023-05-24T02:07:29.754Z,12.70
2023-05-24T02:08:35.032Z,27.50
2023-05-24T02:09:39.472Z,27.20
2023-05-24T02:10:44.269Z,24.10
2023-05-24T02:11:48.949Z,24.80
2023-05-24T02:12:53.531Z,24.50
2023-05-24T02:13:58.062Z,21.50
2023-05-24T02:15:02.855Z,23.50
2023-05-24T02:16:08.771Z,21.60
2023-05-24T02:17:18.375Z,22.00
2023-05-24T02:18:23.065Z,22.00
2023-05-24T02:19:27.845Z,22.00
2023-05-24T02:20:32.497Z,23.90
2023-05-24T02:21:37.079Z,17.40
2023-05-24T02:22:41.746Z,23.20
2023-05-24T02:23:46.415Z,18.70
2023-05-24T02:24:51.043Z,20.50
2023-05-24T02:25:56.189Z,22.20
2023-05-24T02:27:00.786Z,23.20
2023-05-24T02:28:05.383Z,22.10
2023-05-24T02:29:10.009Z,18.90
2023-05-24T02:30:16.344Z,22.80
2023-05-24T02:31:21.146Z,23.40
2023-05-24T02:32:26.299Z,22.10
2023-05-24T02:33:30.736Z,23.10
2023-05-24T02:34:35.442Z,20.60
2023-05-24T02:35:40.570Z,22.10
2023-05-24T02:36:44.862Z,22.10
2023-05-24T02:37:49.363Z,19.60
2023-05-24T02:38:54.108Z,21.90
2023-05-24T02:39:59.390Z,19.80
2023-05-24T02:41:03.990Z,22.80
2023-05-24T02:42:07.420Z,23.40
2023-05-24T02:43:12.525Z,23.45
2023-05-24T02:44:17.791Z,23.00
2023-05-24T02:45:22.785Z,19.70
2023-05-24T02:46:27.410Z,8.50
2023-05-24T02:47:32.001Z,18.10
2023-05-24T02:48:36.520Z,27.30
2023-05-24T02:49:41.160Z,22.60
2023-05-24T02:50:46.300Z,22.30
2023-05-24T02:51:51.540Z,21.10
2023-05-24T02:52:56.851Z,22.20
2023-05-24T02:54:01.513Z,22.00
2023-05-24T02:55:06.572Z,22.00
2023-05-24T02:56:12.542Z,21.20
2023-05-24T02:57:17.158Z,26.10
2023-05-24T02:58:22.529Z,23.10
2023-05-24T02:59:27.114Z,25.60
2023-05-24T03:00:31.703Z,21.80
2023-05-24T03:01:36.274Z,23.40
2023-05-24T03:02:40.794Z,23.10
2023-05-24T03:03:45.562Z,21.00
2023-05-24T03:04:50.004Z,22.60
2023-05-24T03:05:54.551Z,25.70
2023-05-24T03:06:59.358Z,23.10
2023-05-24T03:08:04.455Z,21.10
2023-05-24T03:09:09.033Z,21.70
2023-05-24T03:10:15.910Z,20.90
2023-05-24T03:11:20.905Z,26.60
2023-05-24T03:12:23.123Z,25.00
2023-05-24T03:13:29.336Z,22.40
2023-05-24T03:14:34.490Z,25.10
2023-05-24T03:15:39.466Z,25.50
2023-05-24T03:16:45.095Z,23.30
2023-05-24T03:17:50.125Z,23.20
2023-05-24T03:18:55.251Z,22.60
2023-05-24T03:24:33.222Z,26.80
2023-05-24T03:25:38.677Z,26.30
2023-05-24T03:26:43.418Z,23.70
2023-05-24T03:27:48.086Z,26.10
2023-05-24T03:28:52.805Z,26.30
2023-05-24T03:29:57.435Z,26.60
2023-05-24T03:31:03.545Z,27.90
2023-05-24T03:32:08.128Z,24.50
2023-05-24T03:33:12.911Z,25.00
2023-05-24T03:34:18.091Z,27.40
2023-05-24T03:35:23.421Z,25.70
2023-05-24T03:36:28.612Z,31.00
2023-05-24T03:37:33.221Z,27.70
2023-05-24T03:38:38.362Z,28.80
2023-05-24T03:39:43.567Z,26.90
2023-05-24T03:40:56.113Z,25.50
2023-05-24T03:42:00.832Z,27.70
2023-05-24T03:43:06.053Z,25.30
2023-05-24T03:44:21.044Z,25.00
2023-05-24T03:45:37.589Z,27.80
2023-05-24T03:46:32.112Z,25.10
2023-05-24T03:47:38.738Z,24.50
2023-05-24T03:48:43.269Z,26.30
2023-05-24T03:49:47.913Z,28.80
2023-05-24T03:50:53.332Z,26.10
2023-05-24T03:51:58.379Z,23.70
2023-05-24T03:53:02.722Z,26.40
2023-05-24T03:54:08.762Z,25.40
2023-05-24T03:55:13.276Z,25.70
2023-05-24T03:56:17.854Z,28.60
2023-05-24T03:57:22.344Z,26.20
2023-05-24T03:58:27.465Z,25.20
2023-05-24T03:59:32.050Z,27.80
2023-05-24T04:00:36.866Z,30.80
2023-05-24T04:01:41.603Z,19.30
2023-05-24T04:02:46.963Z,29.60
2023-05-24T04:03:52.147Z,27.00
2023-05-24T04:04:57.565Z,13.00
2023-05-24T04:06:02.708Z,26.50
2023-05-24T04:07:08.159Z,27.20
2023-05-24T04:08:12.787Z,25.40
2023-05-24T04:09:18.012Z,24.00
2023-05-24T04:10:23.116Z,25.20
2023-05-24T04:11:28.406Z,24.40
2023-05-24T04:12:33.285Z,27.20
2023-05-24T04:13:38.458Z,28.50
2023-05-24T04:14:43.031Z,27.10
2023-05-24T04:15:47.681Z,24.30
2023-05-24T04:16:52.396Z,26.30
2023-05-24T04:17:57.148Z,24.30
2023-05-24T04:19:02.602Z,28.50
2023-05-24T04:20:10.070Z,26.30
2023-05-24T04:21:15.521Z,26.70
2023-05-24T04:22:19.813Z,27.00
2023-05-24T04:23:25.397Z,26.60
2023-05-24T04:24:30.182Z,29.40
2023-05-24T04:25:34.803Z,27.20
2023-05-24T04:26:39.559Z,28.60
2023-05-24T04:27:44.294Z,28.00
2023-05-24T04:28:48.818Z,27.30
2023-05-24T04:29:53.985Z,27.00
2023-05-24T04:30:58.686Z,24.10
2023-05-24T04:32:03.696Z,26.40
2023-05-24T04:33:08.991Z,25.70
2023-05-24T04:34:13.587Z,25.20
2023-05-24T04:35:18.159Z,17.90
2023-05-24T04:36:23.644Z,25.30
2023-05-24T04:37:28.615Z,22.20
2023-05-24T04:38:33.788Z,23.50
2023-05-24T04:39:38.436Z,21.60
2023-05-24T04:40:43.228Z,26.50
2023-05-24T04:41:48.040Z,25.10
2023-05-24T04:42:52.768Z,23.50
2023-05-24T04:43:57.309Z,25.70
2023-05-24T04:45:01.836Z,26.90
2023-05-24T04:46:08.901Z,27.00
2023-05-24T04:47:13.886Z,28.10
2023-05-24T04:48:18.882Z,28.50
2023-05-24T04:49:23.378Z,26.10
2023-05-24T04:50:28.642Z,26.10
2023-05-24T04:51:33.886Z,28.90
2023-05-24T04:52:38.854Z,25.20
2023-05-24T04:53:44.058Z,23.40
2023-05-24T04:54:48.636Z,24.00
2023-05-24T04:55:53.260Z,21.80
2023-05-24T04:56:57.838Z,20.90
2023-05-24T04:58:02.925Z,27.30
2023-05-24T04:59:09.515Z,23.70
2023-05-24T05:00:15.708Z,23.50
2023-05-24T05:01:20.142Z,28.00
2023-05-24T05:02:24.873Z,29.00
2023-05-24T05:03:29.634Z,26.10
2023-05-24T05:04:34.252Z,26.50
2023-05-24T05:05:39.300Z,24.20
2023-05-24T05:06:45.897Z,25.00
2023-05-24T05:07:48.013Z,22.70
2023-05-24T05:08:53.009Z,23.60
2023-05-24T05:09:58.010Z,18.10
2023-05-24T05:11:03.035Z,22.50
2023-05-24T05:12:07.763Z,23.10
2023-05-24T05:13:12.281Z,24.00
2023-05-24T05:14:17.263Z,17.70
2023-05-24T05:15:25.856Z,22.00
2023-05-24T05:16:30.605Z,22.50
2023-05-24T05:17:35.339Z,21.90
2023-05-24T05:18:40.503Z,22.60
2023-05-24T05:19:45.108Z,20.90
2023-05-24T05:20:49.863Z,18.10
2023-05-24T05:21:54.715Z,19.60
2023-05-24T05:22:58.993Z,16.70
2023-05-24T05:24:03.441Z,22.00
2023-05-24T05:25:09.145Z,20.90
2023-05-24T05:26:14.169Z,18.90
2023-05-24T05:27:16.428Z,21.00
2023-05-24T05:28:20.698Z,18.50
2023-05-24T05:29:24.324Z,18.30
2023-05-24T05:30:27.206Z,18.70
2023-05-24T05:31:29.444Z,19.50
2023-05-24T05:32:31.646Z,15.60
2023-05-24T05:33:34.222Z,15.90
2023-05-24T05:34:36.426Z,17.40
2023-05-24T05:35:38.668Z,16.90
2023-05-24T05:36:41.080Z,16.10
2023-05-24T05:37:43.194Z,16.40
2023-05-24T05:38:45.225Z,12.20
2023-05-24T05:39:47.513Z,18.60
2023-05-24T05:40:49.916Z,16.20
2023-05-24T05:41:52.229Z,15.50
2023-05-24T05:45:30.982Z,14.60
2023-05-24T05:46:33.421Z,14.00
2023-05-24T05:47:35.932Z,13.00
2023-05-24T05:48:38.066Z,13.20
2023-05-24T05:49:42.365Z,12.40
2023-05-24T05:50:44.643Z,12.20
2023-05-24T05:51:47.051Z,15.10
2023-05-24T05:52:49.404Z,13.60
2023-05-24T05:53:51.754Z,11.90
2023-05-24T05:54:56.288Z,12.80
2023-05-24T05:56:00.976Z,0.40
2023-05-24T05:57:03.511Z,13.20
2023-05-24T05:58:07.899Z,14.80
2023-05-24T05:59:10.586Z,14.30
2023-05-24T06:00:14.074Z,15.20
2023-05-24T06:01:17.518Z,12.60
2023-05-24T06:02:19.904Z,11.00
2023-05-24T06:03:24.505Z,11.00
2023-05-24T06:04:29.570Z,14.20
2023-05-24T06:05:32.168Z,5.70
2023-05-24T06:06:34.640Z,11.50
2023-05-24T06:07:37.023Z,10.90
2023-05-24T06:08:40.303Z,10.30
2023-05-24T06:09:44.708Z,10.30
2023-05-24T06:10:47.141Z,9.20
2023-05-24T06:11:49.232Z,7.80
2023-05-24T06:12:51.519Z,5.70
2023-05-24T06:13:53.770Z,9.40
2023-05-24T06:14:55.819Z,8.60
2023-05-24T06:15:58.184Z,9.80
2023-05-24T06:17:00.596Z,9.10
2023-05-24T06:18:03.092Z,10.50
2023-05-24T06:19:07.443Z,7.40
2023-05-24T06:20:12.223Z,9.20
2023-05-24T06:21:14.972Z,9.80
2023-05-24T06:22:17.203Z,9.00
2023-05-24T06:23:22.029Z,9.70
2023-05-24T06:24:26.715Z,8.80
2023-05-24T06:25:31.805Z,10.60
2023-05-24T06:26:34.215Z,9.20
2023-05-24T06:27:38.669Z,26.50
2023-05-24T06:28:40.974Z,47.90
2023-05-24T06:29:43.046Z,9.80
2023-05-24T06:30:48.808Z,10.50
2023-05-24T06:31:53.469Z,10.40
2023-05-24T06:32:58.099Z,9.70
2023-05-24T06:34:04.453Z,11.00
2023-05-24T06:35:10.600Z,10.90
2023-05-24T06:36:15.863Z,11.00
2023-05-24T06:37:18.190Z,9.60
2023-05-24T06:38:20.469Z,11.20
2023-05-24T06:39:22.693Z,9.30
2023-05-24T06:40:25.019Z,7.50
2023-05-24T06:41:36.614Z,9.70
2023-05-24T06:42:39.309Z,10.30
2023-05-24T06:43:41.474Z,10.40
2023-05-24T06:44:43.817Z,10.00
2023-05-24T06:45:47.996Z,14.00
2023-05-24T06:46:52.981Z,13.70
2023-05-24T06:47:57.704Z,9.60
2023-05-24T06:49:00.488Z,7.50
2023-05-24T06:50:08.677Z,13.00
2023-05-24T06:51:11.129Z,10.50
2023-05-24T06:52:13.429Z,10.70
2023-05-24T06:53:16.131Z,11.30
2023-05-24T06:54:18.381Z,10.20
2023-05-24T06:55:20.796Z,10.70
2023-05-24T06:56:23.005Z,9.80
2023-05-24T06:57:27.330Z,8.20
2023-05-24T06:58:31.941Z,10.90
2023-05-24T06:59:34.088Z,10.40
2023-05-24T07:00:36.733Z,12.00
2023-05-24T07:01:40.260Z,10.00
2023-05-24T07:02:42.893Z,10.90
2023-05-24T07:03:45.201Z,8.30
2023-05-24T07:04:47.632Z,10.50
2023-05-24T07:05:49.995Z,7.20
2023-05-24T07:06:54.863Z,7.70
2023-05-24T07:07:59.501Z,8.90
2023-05-24T07:09:04.751Z,9.10
2023-05-24T07:10:10.672Z,8.80
2023-05-24T07:11:12.808Z,10.70
2023-05-24T07:12:15.155Z,8.20
2023-05-24T07:13:19.751Z,8.80
2023-05-24T07:14:24.718Z,9.90
2023-05-24T07:15:29.712Z,7.00
2023-05-24T07:16:34.578Z,9.40
2023-05-24T07:17:41.696Z,9.30
2023-05-24T07:18:46.366Z,6.60
2023-05-24T07:19:51.095Z,8.60
2023-05-24T07:20:55.334Z,7.30
2023-05-24T07:22:00.538Z,8.10
2023-05-24T07:23:05.644Z,9.40
2023-05-24T07:24:09.785Z,10.10
2023-05-24T07:25:14.869Z,8.80
2023-05-24T07:26:19.587Z,10.00
2023-05-24T07:27:24.284Z,8.30
2023-05-24T07:28:26.647Z,9.70
2023-05-24T07:29:30.979Z,8.50
2023-05-24T07:30:36.182Z,10.60
2023-05-24T07:31:38.406Z,9.40
2023-05-24T07:32:43.696Z,6.67
2023-05-24T07:33:47.993Z,9.40
2023-05-24T07:34:52.854Z,8.30
2023-05-24T07:35:57.383Z,5.40
2023-05-24T07:37:03.760Z,7.00
2023-05-24T07:38:08.904Z,8.40
2023-05-24T07:39:13.688Z,17.30
2023-05-24T07:40:18.925Z,8.80
2023-05-24T07:42:29.557Z,7.20
2023-05-24T07:43:31.596Z,11.56
2023-05-24T07:44:35.802Z,8.20
2023-05-24T07:45:41.205Z,7.20
2023-05-24T07:46:43.954Z,7.50
2023-05-24T07:47:50.948Z,8.50
2023-05-24T07:48:55.474Z,7.40
2023-05-24T07:50:00.142Z,6.90
2023-05-24T07:51:05.232Z,9.20
2023-05-24T07:52:07.556Z,7.20
2023-05-24T07:53:09.984Z,6.20
2023-05-24T07:54:15.064Z,7.50
2023-05-24T07:55:20.281Z,8.60
2023-05-24T07:56:24.830Z,8.45
2023-05-24T07:57:29.909Z,7.70
2023-05-24T07:58:32.115Z,5.60
2023-05-24T07:59:37.098Z,6.80
2023-05-24T08:00:41.456Z,10.40
2023-05-24T08:01:46.032Z,7.60
2023-05-24T08:02:51.430Z,8.30
2023-05-24T08:03:56.305Z,9.90
2023-05-24T08:05:01.688Z,7.00
2023-05-24T08:06:05.144Z,10.50
2023-05-24T08:07:10.886Z,9.30
2023-05-24T08:08:15.636Z,9.70
2023-05-24T08:09:17.737Z,7.70
2023-05-24T08:10:20.134Z,9.70
2023-05-24T08:11:22.526Z,10.70
2023-05-24T08:12:26.813Z,10.78
2023-05-24T08:13:31.512Z,11.50
2023-05-24T08:14:36.244Z,8.70
2023-05-24T08:15:38.502Z,10.10
2023-05-24T08:16:42.733Z,10.78
2023-05-24T08:17:48.062Z,11.60
2023-05-24T08:18:52.476Z,9.80
2023-05-24T08:19:56.438Z,7.60
2023-05-24T08:21:01.933Z,11.00
2023-05-24T08:22:06.508Z,10.00
2023-05-24T08:23:11.025Z,10.00
2023-05-24T08:24:13.355Z,10.00
2023-05-24T08:25:17.798Z,11.33
2023-05-24T08:26:20.148Z,8.00
2023-05-24T08:27:24.431Z,10.20
2023-05-24T08:28:26.855Z,11.10
2023-05-24T08:29:29.438Z,10.10
2023-05-24T08:30:33.792Z,10.67
2023-05-24T08:31:38.398Z,8.40
2023-05-24T08:32:41.170Z,10.80
2023-05-24T08:33:46.579Z,10.60
2023-05-24T08:34:51.373Z,10.10
2023-05-24T08:35:57.450Z,10.50
2023-05-24T08:37:02.596Z,12.00
2023-05-24T08:38:07.688Z,9.70
2023-05-24T08:39:09.965Z,7.60
2023-05-24T08:40:13.166Z,10.20
2023-05-24T08:41:17.366Z,9.11
2023-05-24T08:42:27.164Z,10.50
2023-05-24T08:43:33.748Z,32.90
2023-05-24T08:45:54.656Z,12.90
2023-05-24T08:46:59.788Z,9.70
2023-05-24T08:48:04.867Z,8.60
2023-05-24T08:49:07.149Z,7.70
2023-05-24T08:50:15.193Z,8.60
2023-05-24T08:51:20.377Z,11.30
2023-05-24T08:52:25.474Z,8.60
2023-05-24T08:53:29.657Z,9.60
2023-05-24T08:54:34.134Z,9.20
2023-05-24T08:55:39.166Z,11.90
2023-05-24T08:56:41.548Z,9.40
2023-05-24T08:58:57.638Z,9.50
2023-05-24T09:00:00.335Z,15.30
2023-05-24T09:01:05.495Z,9.70
2023-05-24T09:02:10.758Z,9.70
2023-05-24T09:03:18.720Z,9.70
2023-05-24T09:04:24.437Z,9.90
2023-05-24T09:05:29.199Z,9.60
2023-05-24T09:06:31.798Z,8.10
2023-05-24T09:07:36.369Z,7.40
2023-05-24T09:08:43.719Z,9.50
2023-05-24T09:11:02.525Z,7.70
2023-05-24T09:12:06.517Z,0.20
2023-05-24T09:13:10.821Z,6.90
2023-05-24T09:14:16.485Z,7.10
2023-05-24T09:15:22.001Z,7.30
2023-05-24T09:16:27.289Z,8.10
2023-05-24T09:18:42.673Z,7.30
2023-05-24T09:19:47.794Z,8.70
2023-05-24T09:20:50.544Z,7.90
2023-05-24T09:21:55.610Z,9.70
2023-05-24T09:23:00.805Z,7.00
2023-05-24T09:24:08.773Z,7.50
2023-05-24T09:25:15.839Z,8.00
2023-05-24T09:26:21.025Z,7.30
2023-05-24T09:27:27.928Z,7.90
2023-05-24T09:28:34.398Z,9.20
2023-05-24T09:29:39.444Z,11.50
2023-05-24T09:30:48.594Z,9.60
2023-05-24T09:31:52.239Z,8.40
2023-05-24T09:32:58.721Z,8.30
2023-05-24T09:34:01.396Z,7.00
2023-05-24T09:36:17.409Z,5.20
2023-05-24T09:37:26.902Z,7.00
2023-05-24T09:38:31.482Z,7.70
2023-05-24T09:39:36.462Z,9.80
2023-05-24T09:40:41.570Z,6.50
2023-05-24T09:41:46.208Z,8.50
2023-05-24T09:42:48.497Z,8.90
2023-05-24T09:43:50.747Z,8.44
2023-05-24T09:45:00.958Z,8.11
2023-05-24T09:46:06.660Z,9.00
2023-05-24T09:47:10.933Z,8.20
2023-05-24T09:48:15.506Z,7.30
2023-05-24T09:49:20.750Z,7.40
2023-05-24T09:51:30.878Z,7.60
2023-05-24T09:52:40.747Z,7.50
2023-05-24T09:53:46.845Z,7.10
2023-05-24T09:54:51.591Z,6.80
2023-05-24T09:55:56.851Z,6.70
2023-05-24T09:57:04.897Z,5.30
2023-05-24T09:58:11.046Z,4.40
2023-05-24T09:59:15.712Z,6.40
2023-05-24T10:00:23.508Z,6.50
2023-05-24T10:01:30.603Z,6.80
2023-05-24T10:02:45.235Z,8.10
2023-05-24T10:03:41.842Z,6.00
2023-05-24T10:04:47.223Z,6.50
2023-05-24T10:05:51.835Z,6.00
2023-05-24T10:06:56.612Z,6.40
2023-05-24T10:08:01.208Z,4.30
2023-05-24T10:09:06.740Z,4.80
2023-05-24T10:10:13.439Z,5.50
2023-05-24T10:11:17.878Z,6.60
2023-05-24T10:12:22.731Z,5.10
2023-05-24T10:13:25.053Z,7.00
2023-05-24T10:14:30.309Z,6.89
2023-05-24T10:15:34.798Z,5.70
2023-05-24T10:16:37.165Z,6.10
2023-05-24T10:17:39.310Z,7.22
2023-05-24T10:18:43.600Z,6.44
2023-05-24T10:19:48.381Z,6.20
2023-05-24T10:20:53.443Z,7.00
2023-05-24T10:21:58.652Z,2.80
2023-05-24T10:23:02.869Z,6.00
2023-05-24T10:24:06.322Z,7.40
2023-05-24T10:26:24.943Z,5.90
2023-05-24T10:27:30.447Z,7.20
2023-05-24T10:28:37.921Z,5.90
2023-05-24T10:29:49.875Z,6.00
2023-05-24T10:31:01.748Z,6.60
2023-05-24T10:32:07.203Z,5.70
2023-05-24T10:33:11.706Z,6.00
2023-05-24T10:34:14.386Z,5.40
2023-05-24T10:35:18.823Z,5.90
2023-05-24T10:36:23.963Z,5.00
2023-05-24T10:37:28.433Z,4.40
2023-05-24T10:38:33.677Z,5.30
2023-05-24T10:39:38.851Z,5.30
2023-05-24T10:40:45.909Z,4.90
2023-05-24T10:41:51.006Z,6.10
2023-05-24T10:42:55.613Z,3.80
2023-05-24T10:44:08.794Z,5.90
2023-05-24T10:46:36.377Z,6.80
2023-05-24T10:47:41.000Z,5.70
2023-05-24T10:48:46.139Z,3.50
2023-05-24T10:49:53.522Z,6.10
2023-05-24T10:50:58.116Z,5.50
2023-05-24T10:52:01.782Z,5.80
2023-05-24T10:53:23.567Z,5.18
2023-05-24T10:54:28.237Z,5.80
2023-05-24T10:56:46.496Z,6.20
2023-05-24T10:57:48.685Z,4.30
2023-05-24T10:59:01.519Z,7.67
2023-05-24T11:01:35.163Z,4.90
2023-05-24T11:02:37.658Z,5.20
2023-05-24T11:03:46.349Z,4.00
2023-05-24T11:04:51.266Z,4.70
2023-05-24T11:05:54.003Z,6.30
2023-05-24T11:07:01.953Z,7.30
2023-05-24T11:08:08.952Z,5.00
2023-05-24T11:09:13.336Z,4.70
2023-05-24T11:10:18.734Z,4.70
2023-05-24T11:12:33.066Z,6.40
2023-05-24T11:13:39.711Z,5.60
2023-05-24T11:14:46.744Z,4.60
2023-05-24T11:15:54.929Z,6.10
2023-05-24T11:16:58.683Z,4.70
2023-05-24T11:18:13.045Z,5.00
2023-05-24T11:19:25.262Z,4.70
2023-05-24T11:20:30.125Z,5.20
2023-05-24T11:21:34.623Z,6.00
2023-05-24T11:22:39.670Z,5.30
2023-05-24T11:23:44.071Z,5.20
2023-05-24T11:24:48.958Z,5.90
2023-05-24T11:25:54.278Z,5.80
2023-05-24T11:26:59.868Z,4.90
2023-05-24T11:28:03.141Z,4.10
2023-05-24T11:29:08.488Z,5.20
2023-05-24T11:30:14.936Z,4.40
2023-05-24T11:31:21.207Z,3.30
2023-05-24T11:32:23.476Z,4.00
2023-05-24T11:33:30.005Z,5.44
2023-05-24T11:34:32.420Z,4.20
2023-05-24T11:35:36.687Z,3.70
2023-05-24T11:36:38.816Z,6.10
2023-05-24T11:37:46.737Z,5.44
2023-05-24T11:38:50.135Z,6.40
2023-05-24T11:39:54.721Z,4.60
2023-05-24T11:40:57.481Z,5.50
2023-05-24T11:41:59.712Z,3.78
2023-05-24T11:43:01.794Z,3.11
2023-05-24T11:44:06.668Z,4.00
2023-05-24T11:45:09.650Z,5.60
2023-05-24T11:46:13.325Z,2.10
2023-05-24T11:47:15.460Z,7.56
2023-05-24T11:48:21.473Z,7.22
2023-05-24T11:49:25.935Z,6.00
2023-05-24T11:50:33.141Z,4.00
2023-05-24T11:51:34.884Z,9.60
2023-05-24T11:52:42.726Z,7.44
2023-05-24T11:53:45.649Z,5.90
2023-05-24T11:54:48.921Z,5.40
2023-05-24T11:55:53.112Z,6.10
2023-05-24T11:56:55.346Z,4.00
2023-05-24T11:57:59.069Z,4.78
2023-05-24T11:59:07.242Z,5.55
2023-05-24T12:00:12.832Z,5.60
2023-05-24T12:02:36.859Z,4.50
2023-05-24T12:03:39.339Z,6.10
2023-05-24T12:04:44.714Z,2.20
2023-05-24T12:05:49.833Z,6.80
2023-05-24T12:06:54.424Z,5.60
2023-05-24T12:08:03.944Z,4.40
2023-05-24T12:09:08.703Z,4.20
2023-05-24T12:10:12.567Z,5.20
2023-05-24T12:11:18.628Z,5.50
2023-05-24T12:12:30.875Z,4.90
2023-05-24T12:13:31.546Z,5.40
2023-05-24T12:14:38.155Z,5.50
2023-05-24T12:15:43.316Z,5.90
2023-05-24T12:16:46.666Z,5.40
2023-05-24T12:17:50.988Z,5.60
2023-05-24T12:19:04.092Z,6.00
2023-05-24T12:20:02.487Z,6.10
2023-05-24T12:22:18.785Z,5.70
2023-05-24T12:23:25.800Z,6.56
2023-05-24T12:24:30.972Z,6.10
2023-05-24T12:25:36.142Z,6.40
2023-05-24T12:26:48.096Z,4.90
2023-05-24T12:27:57.931Z,6.50
2023-05-24T12:29:02.699Z,8.50
2023-05-24T12:31:22.192Z,5.60
2023-05-24T12:32:26.983Z,4.80
2023-05-24T12:33:33.286Z,6.30
2023-05-24T12:34:38.642Z,6.80
2023-05-24T12:35:41.021Z,6.30
2023-05-24T12:36:45.921Z,5.44
2023-05-24T12:37:48.798Z,6.20
2023-05-24T12:38:53.579Z,5.10
2023-05-24T12:39:58.268Z,6.30
2023-05-24T12:41:13.077Z,6.00
2023-05-24T12:42:07.551Z,4.90
2023-05-24T12:43:11.737Z,7.11
2023-05-24T12:44:16.888Z,6.40
2023-05-24T12:45:21.381Z,6.20
2023-05-24T12:46:23.686Z,5.80
2023-05-24T12:47:30.311Z,5.20
2023-05-24T12:48:35.679Z,5.30
2023-05-24T12:49:40.657Z,6.40
2023-05-24T12:50:45.379Z,6.00
2023-05-24T12:51:51.509Z,6.60
2023-05-24T12:52:56.675Z,7.80
2023-05-24T12:54:01.241Z,7.40
2023-05-24T12:55:06.956Z,6.90
2023-05-24T12:56:11.655Z,7.40
2023-05-24T12:57:16.350Z,6.80
2023-05-24T12:58:20.958Z,7.10
2023-05-24T12:59:25.579Z,7.10
2023-05-24T13:00:31.020Z,7.30
2023-05-24T13:01:33.412Z,7.60
2023-05-24T13:02:39.507Z,6.44
2023-05-24T13:03:43.632Z,6.90
2023-05-24T13:04:48.135Z,6.50
2023-05-24T13:05:52.828Z,6.70
2023-05-24T13:06:58.097Z,7.40
2023-05-24T13:08:02.778Z,5.40
2023-05-24T13:09:07.338Z,5.80
2023-05-24T13:10:34.054Z,6.10
2023-05-24T13:11:36.422Z,5.60
2023-05-24T13:12:40.684Z,5.89
2023-05-24T13:13:45.318Z,6.80
2023-05-24T13:14:48.127Z,7.70
2023-05-24T13:15:54.423Z,6.30
2023-05-24T13:16:59.715Z,6.30
2023-05-24T13:18:04.311Z,5.40
2023-05-24T13:19:08.900Z,7.00
2023-05-24T13:20:13.932Z,5.70
2023-05-24T13:21:16.219Z,6.60
2023-05-24T13:22:20.599Z,6.11
2023-05-24T13:23:26.732Z,7.00
2023-05-24T13:24:31.637Z,7.90
2023-05-24T13:25:36.726Z,8.10
2023-05-24T13:26:41.329Z,6.10
2023-05-24T13:27:46.289Z,6.20
2023-05-24T13:29:15.163Z,6.70
2023-05-24T13:31:01.749Z,6.20
2023-05-24T13:32:06.732Z,6.20
2023-05-24T13:33:09.603Z,7.10
2023-05-24T13:34:13.872Z,6.44
2023-05-24T13:35:19.115Z,7.70
2023-05-24T13:36:24.294Z,6.60
2023-05-24T13:37:29.248Z,6.40
2023-05-24T13:38:33.468Z,7.10
2023-05-24T13:39:39.053Z,6.40
2023-05-24T13:40:44.608Z,7.10
2023-05-24T13:41:50.087Z,7.00
2023-05-24T13:42:58.282Z,8.20
2023-05-24T13:44:03.407Z,6.40
2023-05-24T13:45:08.133Z,6.30
2023-05-24T13:46:14.802Z,5.50
2023-05-24T13:47:27.209Z,6.80
2023-05-24T13:48:23.182Z,6.70
2023-05-24T13:49:27.790Z,7.80
2023-05-24T13:51:44.070Z,9.60
2023-05-24T13:52:46.230Z,6.70
2023-05-24T13:53:51.201Z,7.44
2023-05-24T13:54:56.490Z,6.70
2023-05-24T13:56:02.111Z,6.30
2023-05-24T13:57:06.417Z,5.80
2023-05-24T13:58:10.760Z,5.90
2023-05-24T13:59:15.486Z,5.90
2023-05-24T14:00:21.952Z,6.80
2023-05-24T14:01:24.405Z,11.90
2023-05-24T14:02:28.617Z,7.67
2023-05-24T14:03:30.978Z,7.40
2023-05-24T14:04:36.068Z,8.11
2023-05-24T14:05:41.583Z,7.10
2023-05-24T14:06:46.151Z,7.20
2023-05-24T14:07:48.503Z,7.50
2023-05-24T14:08:50.897Z,6.89
2023-05-24T14:09:54.367Z,7.00
2023-05-24T14:10:56.552Z,7.90
2023-05-24T14:11:58.802Z,7.44
2023-05-24T14:13:19.241Z,7.00
2023-05-24T14:15:09.558Z,7.00
2023-05-24T14:16:13.304Z,7.64
2023-05-24T14:17:16.813Z,6.50
2023-05-24T14:18:18.800Z,7.33
2023-05-24T14:19:21.092Z,7.78
2023-05-24T14:20:23.338Z,6.67
2023-05-24T14:21:25.614Z,5.89
2023-05-24T14:22:29.850Z,7.44
2023-05-24T14:23:32.099Z,8.60
2023-05-24T14:24:36.450Z,8.44
2023-05-24T14:25:41.245Z,9.10
2023-05-24T14:26:46.395Z,7.00
2023-05-24T14:27:51.032Z,8.60
2023-05-24T14:28:56.922Z,9.00
2023-05-24T14:30:01.835Z,8.90
2023-05-24T14:31:07.386Z,10.90
2023-05-24T14:32:11.901Z,10.60
2023-05-24T14:33:16.642Z,7.50
2023-05-24T14:34:21.227Z,7.90
2023-05-24T14:35:25.785Z,7.50
2023-05-24T14:36:31.000Z,8.00
2023-05-24T14:37:37.590Z,8.50
2023-05-24T14:38:42.722Z,9.70
2023-05-24T14:39:47.920Z,9.20
2023-05-24T14:40:53.088Z,9.20
2023-05-24T14:41:57.670Z,8.60
2023-05-24T14:43:03.702Z,7.90
2023-05-24T14:44:08.737Z,8.70
2023-05-24T14:45:13.368Z,9.30
2023-05-24T14:46:18.308Z,11.20
2023-05-24T14:47:22.800Z,9.20
2023-05-24T14:48:27.322Z,7.90
2023-05-24T14:49:31.892Z,8.90
2023-05-24T14:50:36.503Z,9.20
2023-05-24T14:51:41.097Z,9.00